KMCI

Kansas City International Airport

Kansas City, Missouri, USA
METAR KMCI 230803Z 26004KT 1/4SM R19R/2000V2200FT -FZDZ FZFG VV002 00/M01 A3019 RMK AO2 TWR VIS 1/2 P0000 I1000 T00001006
Observed Flight Rules
Feb-23 @ 08:03 UTC (11 minutes ago) Instrument Flight Rules
Wind Visibility Clouds Conditions
260° at 4 knots 1/4 miles
  • Vertical visibility at 200' AGL
  • Light Freezing
  • Light Drizzle
  • Freezing
  • Fog
Temperatures Readings Precipitation
Current 0°C / 32°F
Dewpoint -1°C / 30°F
Humidity 93%
Altimeter 30.19" Hg
Pressure 1022 hPa
Elevation 320
Current Rain 0.005
METAR KMCI 230803Z 26004KT 1/4SM R19R/2000V2200FT -FZDZ FZFG VV002 00/M01 A3019 RMK AO2 TWR VIS 1/2 P0000 I1000 T00001006
Observed Flight Rules
Feb-23 @ 08:03 UTC
(11 minutes ago)
LIFR
Wind Visibility
260° at 4 knots 1/4 miles
Clouds
  • Vertical visibility at 200' AGL
Conditions
  • Light Freezing
  • Light Drizzle
  • Freezing
  • Fog
Temperature Dewpoint
0°C / 32°F -1°C / 30°F
Humidity Altimeter Pressure
93% 30.19" Hg 1022 hPa
Current Rain
0.005